This is the latest recevied weather packets stored in our database for station/object EA4TN. If no packets are shown the sender has not sent any weather packets the latest 10 day(s).
| Time | Temp. | Humidity | Pressure | Rain* | Wind** | Luminosity | Snow |
|---|---|---|---|---|---|---|---|
| 1777496436 | 16.11° C | 75% | 1011.6 hPa | 0 mm | - | - | - |
| 1777482016 | 22.22° C | 53% | 1008 hPa | 0 mm | - | - | - |
| 1777473616 | 22.22° C | 56% | 1008.2 hPa | 0 mm | - | - | - |
| 1777471216 | 22.22° C | 59% | 1008.5 hPa | 0 mm | - | - | - |
| 1777467616 | 20° C | 69% | 1008.7 hPa | 0 mm | - | - | - |
| 1777465816 | 19.44° C | 74% | 1009 hPa | 0.76 mm | - | - | - |
| 1777463416 | 18.33° C | 72% | 1009.4 hPa | 0.25 mm | - | - | - |
| 1777461616 | 20° C | 65% | 1009.8 hPa | 0 mm | - | - | - |
| 1777459816 | 19.44° C | 67% | 1009.6 hPa | 0 mm | - | - | - |
| 1777458016 | 18.89° C | 69% | 1009.9 hPa | 0 mm | - | - | - |
| 1777456816 | 18.33° C | 70% | 1009.8 hPa | 0 mm | - | - | - |
| 1777452616 | 15.56° C | 85% | 1009.5 hPa | 0 mm | - | - | - |
| 1777449036 | 14.44° C | 88% | 1009.5 hPa | 0.51 mm | - | - | - |
| 1777448417 | 14.44° C | 89% | 1009.2 hPa | 0.51 mm | - | - | - |
| 1777446016 | 14.44° C | 88% | 1009.2 hPa | 0.25 mm | - | - | - |
| 1777445436 | 14.44° C | 87% | 1009.3 hPa | 0.25 mm | - | - | - |
| 1777444217 | 14.44° C | 85% | 1009.7 hPa | 0.25 mm | - | - | - |
| 1777443637 | 14.44° C | 83% | 1009.5 hPa | 0.25 mm | - | - | - |
| 1777442417 | 14.44° C | 79% | 1009.5 hPa | 0 mm | - | - | - |
| 1777440616 | 14.44° C | 78% | 1009.2 hPa | 0 mm | - | - | - |
| 1777439436 | 14.44° C | 77% | 1009 hPa | 0 mm | - | - | - |
| 1777435217 | 14.44° C | 77% | 1009.1 hPa | 0 mm | - | - | - |
| 1777434616 | 14.44° C | 77% | 1009.1 hPa | 0 mm | - | - | - |
| 1777433416 | 15° C | 76% | 1009.1 hPa | 0 mm | - | - | - |
| 1777427436 | 15.56° C | 73% | 1009.2 hPa | 0 mm | - | - | - |
* Rain latest hour (hover to see other rain measurements)
** Current wind speed in m/s (hover to see current wind gust speed)